Time;durP1;ratioP1;P1;durP2;ratioP2;P2;SDS_P1;SDS_P2;PMS_P1;PMS_P2;Temp;Humidity;BMP_temperature;BMP_pressure;BME280_temperature;BME280_humidity;BME280_pressure;Samples;Min_cycle;Max_cycle;Signal;HPM_P1;HPM_P2
2022/09/29 00:03:52;;;;;;;11.98;9.55;;;5.50;99.90;;;;;;7349277;32;20115;-62
2022/09/29 00:07:54;;;;;;;11.73;9.88;;;5.50;99.90;;;;;;7350945;32;20527;-61
2022/09/29 00:11:56;;;;;;;19.33;12.65;;;5.50;99.90;;;;;;7348677;32;20527;-62
2022/09/29 00:15:59;;;;;;;22.45;15.13;;;5.60;99.90;;;;;;7341195;32;20519;-62
2022/09/29 00:20:02;;;;;;;21.05;13.73;;;5.60;99.90;;;;;;7346012;32;20498;-61
2022/09/29 00:24:03;;;;;;;18.67;12.48;;;5.60;99.90;;;;;;7347308;32;20103;-62
2022/09/29 00:28:05;;;;;;;18.62;12.90;;;5.70;99.90;;;;;;7340318;32;20593;-62
2022/09/29 00:32:07;;;;;;;16.08;11.68;;;5.60;99.90;;;;;;7339878;32;20401;-63
2022/09/29 00:36:11;;;;;;;16.48;10.35;;;5.60;99.90;;;;;;7346039;32;20241;-63
2022/09/29 00:40:13;;;;;;;13.45;10.13;;;5.50;99.90;;;;;;7348490;32;20911;-64
2022/09/29 00:44:14;;;;;;;14.48;9.82;;;5.50;99.90;;;;;;7343401;32;20597;-62
2022/09/29 00:48:22;;;;;;;11.73;9.57;;;5.40;99.90;;;;;;7344748;32;20440;-62
2022/09/29 00:52:47;;;;;;;14.43;9.25;;;5.30;99.90;;;;;;7342800;32;20143;-62
2022/09/29 00:56:50;;;;;;;15.23;10.18;;;5.30;99.90;;;;;;7339306;32;20092;-64
2022/09/29 01:00:53;;;;;;;20.75;12.30;;;5.20;99.90;;;;;;7345187;32;20202;-62
2022/09/29 01:04:55;;;;;;;23.45;13.35;;;5.20;99.90;;;;;;7347068;32;20614;-61
2022/09/29 01:09:10;;;;;;;16.37;11.35;;;5.20;99.90;;;;;;7352083;32;20499;-62
2022/09/29 01:13:11;;;;;;;28.65;15.63;;;5.10;99.90;;;;;;7343120;32;20124;-62
2022/09/29 01:17:13;;;;;;;17.85;11.38;;;5.10;99.90;;;;;;7350084;32;20202;-62
2022/09/29 01:21:35;;;;;;;19.90;11.75;;;5.10;99.90;;;;;;7347514;32;20137;-62
2022/09/29 01:25:46;;;;;;;17.83;11.15;;;5.00;99.90;;;;;;7350761;32;20179;-62
2022/09/29 01:30:01;;;;;;;19.70;11.45;;;4.90;99.90;;;;;;7345163;32;20111;-62
2022/09/29 01:34:16;;;;;;;18.55;11.75;;;4.90;99.90;;;;;;7338317;32;20683;-62
2022/09/29 01:38:59;;;;;;;12.65;9.70;;;4.80;99.90;;;;;;7344869;32;20173;-62
2022/09/29 01:43:12;;;;;;;17.67;11.35;;;4.80;99.90;;;;;;7269541;32;20218;-62
2022/09/29 01:47:28;;;;;;;12.13;9.30;;;4.80;99.90;;;;;;7312850;32;20712;-63
2022/09/29 01:51:55;;;;;;;15.02;9.05;;;4.70;99.90;;;;;;7349383;32;20108;-64
2022/09/29 01:56:01;;;;;;;12.93;9.80;;;4.70;99.90;;;;;;7345851;32;20107;-62
2022/09/29 02:00:11;;;;;;;10.77;8.40;;;4.70;99.90;;;;;;7340933;32;20099;-61
2022/09/29 02:04:31;;;;;;;13.20;8.50;;;4.60;99.90;;;;;;7339759;32;20668;-61
2022/09/29 02:08:40;;;;;;;13.15;8.73;;;4.60;99.90;;;;;;7335934;32;20095;-61
2022/09/29 02:12:44;;;;;;;12.02;9.20;;;4.60;99.90;;;;;;7341916;32;20225;-61
2022/09/29 02:17:04;;;;;;;15.25;9.52;;;4.60;99.90;;;;;;7345124;32;20107;-62
2022/09/29 02:21:07;;;;;;;11.30;8.57;;;4.50;99.90;;;;;;7342114;32;20099;-62
2022/09/29 02:25:12;;;;;;;16.42;9.27;;;4.40;99.90;;;;;;7346294;32;20115;-62
2022/09/29 02:29:16;;;;;;;14.20;9.85;;;4.40;99.90;;;;;;7341412;32;20257;-61
2022/09/29 02:33:22;;;;;;;13.60;8.50;;;4.40;99.90;;;;;;7345157;32;20512;-62
2022/09/29 02:37:53;;;;;;;14.13;8.55;;;4.30;99.90;;;;;;7343970;32;20336;-63
2022/09/29 02:42:06;;;;;;;15.73;9.35;;;4.30;99.90;;;;;;7343217;32;20190;-61
2022/09/29 02:46:36;;;;;;;12.25;8.52;;;4.20;99.90;;;;;;7340609;32;20170;-62
2022/09/29 02:50:52;;;;;;;16.33;9.40;;;4.20;99.90;;;;;;7346133;32;20096;-62
2022/09/29 02:55:08;;;;;;;18.27;9.55;;;4.20;99.90;;;;;;7346745;32;20199;-62
2022/09/29 02:59:45;;;;;;;14.87;9.38;;;4.20;99.90;;;;;;7350392;32;20103;-62
2022/09/29 03:03:47;;;;;;;12.93;8.43;;;4.20;99.90;;;;;;7344340;32;20108;-62
2022/09/29 03:07:49;;;;;;;12.90;9.25;;;4.20;99.90;;;;;;7342585;32;20607;-62
2022/09/29 03:11:50;;;;;;;16.20;10.10;;;4.10;99.90;;;;;;7343012;32;20143;-63
2022/09/29 03:15:52;;;;;;;14.63;9.88;;;4.10;99.90;;;;;;7344894;32;20218;-62
2022/09/29 03:19:54;;;;;;;16.80;9.63;;;4.10;99.90;;;;;;7345284;32;20557;-62
2022/09/29 03:23:56;;;;;;;12.70;9.05;;;4.00;99.90;;;;;;7357542;32;20103;-63
2022/09/29 03:27:58;;;;;;;14.13;8.93;;;4.00;99.90;;;;;;7351394;32;20099;-63
2022/09/29 03:32:00;;;;;;;11.95;8.68;;;4.10;99.90;;;;;;7348189;32;20157;-64
2022/09/29 03:36:02;;;;;;;14.48;9.00;;;4.00;99.90;;;;;;7346779;32;20186;-62
2022/09/29 03:40:05;;;;;;;13.25;8.57;;;4.00;99.90;;;;;;7350964;32;20190;-62
2022/09/29 03:44:06;;;;;;;10.57;8.48;;;4.00;99.90;;;;;;7339565;32;20111;-62
2022/09/29 03:48:08;;;;;;;10.75;7.93;;;4.00;99.90;;;;;;7338720;32;20340;-62
2022/09/29 03:52:10;;;;;;;10.43;8.30;;;4.00;99.90;;;;;;7347255;32;20141;-63
2022/09/29 03:56:11;;;;;;;10.90;8.20;;;3.90;99.90;;;;;;7356555;32;20129;-63
2022/09/29 04:00:14;;;;;;;13.32;7.85;;;3.90;99.90;;;;;;7353105;32;20154;-61
2022/09/29 04:04:15;;;;;;;11.12;7.95;;;3.90;99.90;;;;;;7353495;32;20142;-62
2022/09/29 04:08:17;;;;;;;12.13;7.97;;;3.90;99.90;;;;;;7356539;32;20100;-62
2022/09/29 04:12:18;;;;;;;9.85;8.07;;;3.80;99.90;;;;;;7354159;32;20542;-61
2022/09/29 04:16:20;;;;;;;10.40;8.43;;;3.80;99.90;;;;;;7352840;32;20237;-62
2022/09/29 04:20:22;;;;;;;11.18;8.05;;;3.80;99.90;;;;;;7344563;32;20111;-62
2022/09/29 04:24:23;;;;;;;11.30;7.75;;;3.80;99.90;;;;;;7350980;32;20938;-61
2022/09/29 04:28:25;;;;;;;10.55;7.62;;;3.80;99.90;;;;;;7349386;32;20099;-61
2022/09/29 04:32:27;;;;;;;11.35;8.73;;;3.80;99.90;;;;;;7349630;32;20100;-62
2022/09/29 04:36:29;;;;;;;14.87;8.50;;;3.80;99.90;;;;;;7347590;32;20182;-61
2022/09/29 04:40:31;;;;;;;11.60;8.13;;;3.80;99.90;;;;;;7342874;32;20130;-63
2022/09/29 04:44:32;;;;;;;11.18;8.35;;;3.80;99.90;;;;;;7345256;32;20543;-61
2022/09/29 04:48:34;;;;;;;13.07;8.68;;;3.80;99.90;;;;;;7348697;32;20217;-61
2022/09/29 04:52:37;;;;;;;13.43;8.15;;;3.70;99.90;;;;;;7340323;32;20119;-62
2022/09/29 04:56:38;;;;;;;15.70;8.93;;;3.80;99.90;;;;;;7347617;32;20221;-62
2022/09/29 05:00:40;;;;;;;12.82;8.48;;;3.70;99.90;;;;;;7344001;32;20222;-61
2022/09/29 05:04:42;;;;;;;21.80;18.65;;;3.70;99.90;;;;;;7340859;32;20682;-64
2022/09/29 05:08:44;;;;;;;34.20;21.17;;;3.60;99.90;;;;;;7342520;32;20100;-61
2022/09/29 05:12:49;;;;;;;20.10;14.18;;;3.70;99.90;;;;;;7349421;32;20244;-61
2022/09/29 05:16:53;;;;;;;17.35;13.50;;;3.70;99.90;;;;;;7342555;32;20527;-61
2022/09/29 05:20:56;;;;;;;16.20;12.82;;;3.70;99.90;;;;;;7342947;32;20112;-61
2022/09/29 05:25:17;;;;;;;19.58;14.07;;;3.60;99.90;;;;;;7343726;32;20122;-62
2022/09/29 05:29:19;;;;;;;17.90;13.43;;;3.60;99.90;;;;;;7349177;32;20108;-61
2022/09/29 05:33:21;;;;;;;28.65;20.20;;;3.50;99.90;;;;;;7342368;32;20176;-64
2022/09/29 05:37:23;;;;;;;38.03;24.63;;;3.60;99.90;;;;;;7339003;32;20175;-65
2022/09/29 05:41:24;;;;;;;26.80;20.02;;;3.60;99.90;;;;;;7336804;32;20217;-64
2022/09/29 05:45:27;;;;;;;28.87;22.33;;;3.60;99.90;;;;;;7344292;32;20099;-67
2022/09/29 05:49:30;;;;;;;22.98;18.95;;;3.60;99.90;;;;;;7342888;32;20112;-67
2022/09/29 05:53:32;;;;;;;28.27;22.87;;;3.60;99.90;;;;;;7347881;32;20211;-65
2022/09/29 05:57:34;;;;;;;28.45;21.85;;;3.60;99.90;;;;;;7342894;32;20734;-65
2022/09/29 06:01:36;;;;;;;26.05;18.40;;;3.60;99.90;;;;;;7344525;32;20108;-65
2022/09/29 06:05:39;;;;;;;16.20;11.77;;;3.70;99.90;;;;;;7340688;32;20110;-66
2022/09/29 06:09:40;;;;;;;16.70;11.25;;;3.70;99.90;;;;;;7348088;32;20145;-66
2022/09/29 06:13:44;;;;;;;16.08;11.23;;;3.70;99.90;;;;;;7339366;32;20225;-65
2022/09/29 06:17:46;;;;;;;17.33;10.07;;;3.80;99.90;;;;;;7341533;32;20130;-66
2022/09/29 06:21:47;;;;;;;17.87;11.82;;;3.90;99.90;;;;;;7345030;32;20237;-66
2022/09/29 06:25:55;;;;;;;17.27;12.00;;;4.00;99.90;;;;;;7343291;32;20100;-66
2022/09/29 06:29:57;;;;;;;19.85;14.45;;;4.10;99.90;;;;;;7342503;32;20877;-66
2022/09/29 06:34:02;;;;;;;23.33;16.20;;;4.40;99.90;;;;;;7347136;32;20129;-68
2022/09/29 06:38:04;;;;;;;22.48;15.23;;;4.50;99.90;;;;;;7339889;32;20390;-66
2022/09/29 06:42:06;;;;;;;21.23;13.93;;;4.70;99.90;;;;;;7342756;32;20129;-66
2022/09/29 06:46:07;;;;;;;19.05;13.52;;;4.90;99.90;;;;;;7333408;32;23467;-66
2022/09/29 06:50:09;;;;;;;19.50;14.95;;;5.00;99.90;;;;;;7340478;32;20103;-66
2022/09/29 06:54:23;;;;;;;19.10;14.95;;;5.30;99.90;;;;;;7344094;32;20338;-66
2022/09/29 06:58:26;;;;;;;18.60;14.07;;;5.40;99.90;;;;;;7343746;32;20127;-66
2022/09/29 07:02:27;;;;;;;20.23;14.98;;;5.70;99.90;;;;;;7338632;32;20126;-65
2022/09/29 07:06:29;;;;;;;18.15;14.93;;;5.90;99.90;;;;;;7338024;32;20191;-67
2022/09/29 07:10:31;;;;;;;20.15;15.48;;;6.00;99.90;;;;;;7344192;32;20123;-67
2022/09/29 07:14:33;;;;;;;19.10;15.30;;;6.10;99.90;;;;;;7344629;32;20636;-68
2022/09/29 07:18:36;;;;;;;20.20;15.60;;;6.20;99.90;;;;;;7344016;32;20637;-66
2022/09/29 07:22:38;;;;;;;20.27;16.23;;;6.40;99.90;;;;;;7337791;32;20095;-65
2022/09/29 07:26:40;;;;;;;22.17;15.23;;;6.50;99.90;;;;;;7345201;32;20126;-65
2022/09/29 07:30:42;;;;;;;21.23;15.20;;;6.60;99.90;;;;;;7341047;32;20126;-66
2022/09/29 07:34:43;;;;;;;22.55;15.35;;;6.70;99.90;;;;;;7348188;32;20099;-65
2022/09/29 07:38:47;;;;;;;19.33;15.90;;;6.70;99.90;;;;;;7346084;32;20249;-66
2022/09/29 07:42:49;;;;;;;22.90;15.32;;;6.80;99.90;;;;;;7345777;32;20563;-64
2022/09/29 07:46:51;;;;;;;24.12;15.30;;;6.90;99.90;;;;;;7339183;32;20495;-65
2022/09/29 07:51:00;;;;;;;17.15;14.38;;;7.00;99.90;;;;;;7342020;32;20100;-64
2022/09/29 07:55:03;;;;;;;18.83;14.77;;;7.10;99.90;;;;;;7337150;32;20145;-64
2022/09/29 07:59:04;;;;;;;19.67;15.25;;;7.20;99.90;;;;;;7344380;32;20610;-64
2022/09/29 08:03:06;;;;;;;18.58;14.85;;;7.20;99.90;;;;;;7341649;32;20099;-64
2022/09/29 08:07:08;;;;;;;20.65;15.73;;;7.40;99.90;;;;;;7341380;32;20811;-64
2022/09/29 08:11:15;;;;;;;22.98;16.05;;;7.50;99.90;;;;;;7347915;32;20821;-65
2022/09/29 08:15:31;;;;;;;19.35;15.95;;;7.60;99.90;;;;;;7344007;32;20103;-65
2022/09/29 08:19:33;;;;;;;18.90;14.75;;;7.80;99.90;;;;;;7343688;32;20202;-64
2022/09/29 08:23:39;;;;;;;18.95;14.60;;;7.80;99.90;;;;;;7348633;32;20299;-65
2022/09/29 08:27:42;;;;;;;19.20;15.73;;;8.00;99.90;;;;;;7346877;32;20126;-64
2022/09/29 08:31:55;;;;;;;20.98;16.15;;;8.20;99.90;;;;;;7342002;32;20111;-67
2022/09/29 08:35:57;;;;;;;16.37;14.35;;;8.50;99.90;;;;;;7344371;32;20095;-65
2022/09/29 08:39:59;;;;;;;16.02;14.32;;;8.70;99.90;;;;;;7345993;32;20156;-65
2022/09/29 08:44:18;;;;;;;17.33;13.77;;;8.90;99.90;;;;;;7340398;32;20121;-65
2022/09/29 08:48:44;;;;;;;19.10;13.38;;;9.10;99.90;;;;;;7346547;32;20134;-65
2022/09/29 08:53:05;;;;;;;16.12;12.63;;;9.20;99.90;;;;;;7342580;32;20139;-65
2022/09/29 08:57:17;;;;;;;14.30;11.63;;;9.40;99.90;;;;;;7343014;32;20530;-66
2022/09/29 09:01:34;;;;;;;20.62;13.10;;;9.60;99.90;;;;;;7346928;32;20133;-68
2022/09/29 09:05:48;;;;;;;15.00;12.10;;;9.80;99.90;;;;;;7340390;32;20178;-66
2022/09/29 09:10:24;;;;;;;13.48;12.18;;;10.10;99.90;;;;;;7340130;32;20123;-65
2022/09/29 09:14:48;;;;;;;13.55;10.48;;;10.60;99.90;;;;;;7340727;32;20115;-64
2022/09/29 09:19:19;;;;;;;15.50;10.27;;;11.00;99.90;;;;;;7342028;32;20123;-64
2022/09/29 09:23:30;;;;;;;13.98;8.48;;;11.20;99.90;;;;;;7345528;32;20295;-64
2022/09/29 09:27:44;;;;;;;8.85;7.40;;;11.40;99.90;;;;;;7339602;32;20138;-65
2022/09/29 09:32:06;;;;;;;7.95;6.18;;;11.90;99.90;;;;;;7344399;32;20841;-66
2022/09/29 09:36:19;;;;;;;7.95;6.10;;;13.30;99.90;;;;;;7348098;32;20103;-66
2022/09/29 09:40:40;;;;;;;8.23;5.93;;;14.00;99.90;;;;;;7345341;32;20183;-66
2022/09/29 09:44:48;;;;;;;8.52;4.47;;;14.90;99.90;;;;;;7345666;32;20166;-67
2022/09/29 09:49:20;;;;;;;8.27;4.50;;;16.00;99.90;;;;;;7347832;32;20103;-67
2022/09/29 09:53:41;;;;;;;6.57;4.12;;;17.50;99.90;;;;;;7349743;32;20118;-66
2022/09/29 09:57:51;;;;;;;5.60;3.60;;;18.30;99.90;;;;;;7339251;32;20122;-65
2022/09/29 10:01:53;;;;;;;5.62;3.00;;;18.80;99.90;;;;;;7341083;32;20104;-66
2022/09/29 10:05:55;;;;;;;4.22;2.83;;;19.50;99.90;;;;;;7348340;32;20137;-67
2022/09/29 10:10:01;;;;;;;7.93;3.30;;;19.30;99.90;;;;;;7342200;32;20448;-66
2022/09/29 10:14:14;;;;;;;4.00;2.67;;;18.60;99.90;;;;;;7345660;32;20111;-64
2022/09/29 10:18:35;;;;;;;8.00;3.20;;;18.90;99.90;;;;;;7339759;32;20316;-65
2022/09/29 10:22:51;;;;;;;4.30;3.42;;;18.20;99.90;;;;;;7343410;32;20145;-64
2022/09/29 10:26:56;;;;;;;4.85;3.45;;;17.90;99.90;;;;;;7341057;32;20122;-63
2022/09/29 10:30:58;;;;;;;6.07;3.45;;;17.10;99.90;;;;;;7337142;32;20103;-63
2022/09/29 10:35:18;;;;;;;5.85;4.07;;;15.60;99.90;;;;;;7340576;32;20168;-65
2022/09/29 10:39:40;;;;;;;9.23;4.32;;;15.30;99.90;;;;;;7341731;32;20182;-65
2022/09/29 10:43:43;;;;;;;6.85;3.95;;;14.80;99.90;;;;;;7340929;32;20111;-66
2022/09/29 10:48:04;;;;;;;6.20;4.57;;;14.30;99.90;;;;;;7336388;32;20111;-66
2022/09/29 10:52:27;;;;;;;8.77;4.12;;;14.00;99.90;;;;;;7342946;32;20136;-66
2022/09/29 10:56:29;;;;;;;9.07;5.05;;;13.50;99.90;;;;;;7340923;32;20226;-66
2022/09/29 11:00:35;;;;;;;6.35;4.78;;;13.10;99.90;;;;;;7341043;32;20528;-64
2022/09/29 11:04:38;;;;;;;6.53;4.80;;;13.00;99.90;;;;;;7341206;32;20794;-64
2022/09/29 11:09:03;;;;;;;8.27;5.15;;;13.10;99.90;;;;;;7343387;32;20163;-64
2022/09/29 11:13:23;;;;;;;7.60;4.85;;;13.10;99.90;;;;;;7343188;32;20126;-64
2022/09/29 11:17:30;;;;;;;7.15;4.80;;;13.10;99.90;;;;;;7344516;32;20209;-64
2022/09/29 11:21:34;;;;;;;11.50;5.10;;;13.30;99.90;;;;;;7337511;32;20468;-64
2022/09/29 11:25:36;;;;;;;9.63;4.50;;;13.30;99.90;;;;;;7346204;32;20591;-64
2022/09/29 11:29:54;;;;;;;10.07;3.67;;;13.20;99.90;;;;;;7347861;32;20194;-64
2022/09/29 11:34:03;;;;;;;5.37;3.40;;;13.40;99.90;;;;;;7347007;32;20120;-63
2022/09/29 11:38:30;;;;;;;4.80;3.00;;;13.30;99.90;;;;;;7341337;32;20131;-63
2022/09/29 11:42:57;;;;;;;9.68;2.53;;;13.20;99.90;;;;;;7346589;32;20456;-63
2022/09/29 11:47:29;;;;;;;6.77;4.10;;;13.30;99.90;;;;;;7348664;32;20459;-64
2022/09/29 11:52:18;;;;;;;7.53;4.18;;;13.40;99.90;;;;;;7329055;32;20131;-64
2022/09/29 11:56:36;;;;;;;5.85;3.50;;;13.30;99.90;;;;;;7299569;32;20134;-64
2022/09/29 12:01:05;;;;;;;;;;;13.30;99.90;;;;;;7326342;32;20119;-64
2022/09/29 12:05:41;;;;;;;7.75;4.65;;;13.60;99.90;;;;;;7344286;32;20379;-64
2022/09/29 12:10:14;;;;;;;9.23;4.53;;;13.70;99.90;;;;;;7342203;32;20130;-65
2022/09/29 12:14:52;;;;;;;8.07;4.57;;;13.90;99.90;;;;;;7346363;32;20183;-64
2022/09/29 12:19:10;;;;;;;8.50;4.70;;;14.10;99.90;;;;;;7345511;32;20203;-63
2022/09/29 12:23:15;;;;;;;12.27;7.95;;;14.30;99.90;;;;;;7345253;32;20100;-64
2022/09/29 12:27:24;;;;;;;6.72;4.30;;;14.30;99.90;;;;;;7346889;32;20198;-64
2022/09/29 12:31:40;;;;;;;6.18;3.78;;;14.40;99.90;;;;;;7344986;32;20217;-64
2022/09/29 12:35:47;;;;;;;5.50;3.40;;;14.80;99.90;;;;;;7346424;32;20509;-64
2022/09/29 12:39:59;;;;;;;7.00;3.10;;;15.00;99.90;;;;;;7344294;32;20192;-63
2022/09/29 12:44:41;;;;;;;8.40;3.40;;;14.80;99.90;;;;;;7345788;32;20100;-64
2022/09/29 12:49:03;;;;;;;6.85;3.37;;;14.70;99.90;;;;;;7339739;32;20124;-65
2022/09/29 12:53:16;;;;;;;10.65;3.40;;;14.70;99.90;;;;;;7344979;32;20471;-65
2022/09/29 12:57:26;;;;;;;6.40;3.08;;;14.70;99.90;;;;;;7347387;32;20236;-63
2022/09/29 13:01:32;;;;;;;5.22;3.53;;;14.50;99.90;;;;;;7346321;32;20520;-63
2022/09/29 13:05:39;;;;;;;5.30;3.05;;;14.30;99.90;;;;;;7347290;32;20206;-63
2022/09/29 13:10:04;;;;;;;5.55;2.95;;;14.30;99.90;;;;;;7349327;32;20547;-64
2022/09/29 13:14:36;;;;;;;6.62;3.17;;;14.20;99.90;;;;;;7345518;32;20210;-64
2022/09/29 13:19:18;;;;;;;6.53;3.08;;;14.10;99.90;;;;;;7347059;32;20146;-63
2022/09/29 13:24:09;;;;;;;5.95;2.70;;;14.00;99.90;;;;;;7346386;32;20241;-64
2022/09/29 13:28:24;;;;;;;3.78;2.20;;;14.00;99.90;;;;;;7343091;32;20706;-63
2022/09/29 13:32:27;;;;;;;5.28;2.35;;;13.80;99.90;;;;;;7343451;32;20212;-63
2022/09/29 13:36:35;;;;;;;5.93;2.37;;;13.60;99.90;;;;;;7347415;32;20515;-61
2022/09/29 13:40:37;;;;;;;2.85;1.60;;;13.50;99.90;;;;;;7341703;32;20198;-65
2022/09/29 13:44:38;;;;;;;5.37;1.98;;;13.40;99.90;;;;;;7342778;32;20107;-64
2022/09/29 13:48:51;;;;;;;3.85;1.80;;;13.40;99.90;;;;;;7341111;32;20123;-64
2022/09/29 13:52:53;;;;;;;5.65;2.55;;;13.40;99.90;;;;;;7345463;32;20112;-63
2022/09/29 13:57:17;;;;;;;4.28;2.05;;;13.20;99.90;;;;;;7345621;32;20139;-64
2022/09/29 14:01:35;;;;;;;6.37;2.40;;;13.20;99.90;;;;;;7344289;32;20132;-64
2022/09/29 14:05:43;;;;;;;4.85;1.98;;;13.20;99.90;;;;;;7344582;32;20130;-64
2022/09/29 14:09:46;;;;;;;4.90;2.20;;;13.10;99.90;;;;;;7345079;32;20670;-65
2022/09/29 14:13:58;;;;;;;6.72;2.25;;;12.90;99.90;;;;;;7340340;32;20099;-64
2022/09/29 14:18:05;;;;;;;5.18;2.35;;;12.90;99.90;;;;;;7334812;32;20476;-63
2022/09/29 14:22:36;;;;;;;5.35;2.30;;;12.80;99.90;;;;;;7345689;32;20125;-64
2022/09/29 14:26:45;;;;;;;6.70;2.10;;;12.70;99.90;;;;;;7327040;32;20269;-64
2022/09/29 14:30:50;;;;;;;5.28;1.92;;;12.70;99.90;;;;;;7345742;32;20861;-63
2022/09/29 14:34:53;;;;;;;3.92;1.85;;;12.70;99.90;;;;;;7344353;32;20620;-64
2022/09/29 14:38:56;;;;;;;3.97;1.90;;;12.70;99.90;;;;;;7341014;32;20103;-65
2022/09/29 14:43:18;;;;;;;6.43;3.00;;;12.70;99.90;;;;;;7345585;32;20190;-65
2022/09/29 14:52:12;;;;;;;3.53;1.90;;;12.90;99.90;;;;;;7337890;32;20100;-63
2022/09/29 14:56:29;;;;;;;5.25;2.28;;;12.90;99.90;;;;;;7339234;32;20137;-63
2022/09/29 15:00:53;;;;;;;5.90;1.98;;;12.80;99.90;;;;;;7343743;32;20095;-63
2022/09/29 15:04:55;;;;;;;3.08;1.17;;;12.90;99.90;;;;;;7346612;32;20476;-65
2022/09/29 15:09:02;;;;;;;2.67;1.15;;;12.80;99.90;;;;;;7341744;32;20547;-64
2022/09/29 15:13:33;;;;;;;;;;;12.70;99.90;;;;;;7345804;32;20506;-65
2022/09/29 15:18:10;;;;;;;6.03;1.20;;;12.60;99.90;;;;;;7326358;32;20046;-64
2022/09/29 15:22:51;;;;;;;3.00;1.37;;;12.40;99.90;;;;;;7344315;32;20750;-64
2022/09/29 15:26:53;;;;;;;11.25;3.70;;;12.20;99.90;;;;;;7336850;32;20099;-63
2022/09/29 15:31:01;;;;;;;8.38;2.12;;;12.00;99.90;;;;;;7341896;32;20108;-64
2022/09/29 15:35:06;;;;;;;10.35;2.58;;;12.00;99.90;;;;;;7345445;32;20201;-63
2022/09/29 15:39:29;;;;;;;7.12;2.30;;;12.00;99.90;;;;;;7342559;32;20213;-63
2022/09/29 15:43:40;;;;;;;2.47;1.02;;;12.10;99.90;;;;;;7336439;32;20182;-65
2022/09/29 15:47:42;;;;;;;3.87;1.00;;;12.20;99.90;;;;;;7344079;32;20134;-65
2022/09/29 15:51:55;;;;;;;6.68;2.20;;;12.30;99.90;;;;;;7344614;32;20122;-64
2022/09/29 15:55:57;;;;;;;4.57;1.90;;;12.30;99.90;;;;;;7344509;32;20831;-64
2022/09/29 16:00:00;;;;;;;4.25;2.10;;;12.30;99.90;;;;;;7338621;32;20100;-65
2022/09/29 16:04:02;;;;;;;2.70;1.55;;;12.30;99.90;;;;;;7340581;32;20158;-64
2022/09/29 16:08:19;;;;;;;2.55;1.40;;;12.30;99.90;;;;;;7340404;32;20442;-63
2022/09/29 16:12:20;;;;;;;3.37;1.45;;;12.20;99.90;;;;;;7348263;32;20833;-63
2022/09/29 16:16:35;;;;;;;4.20;1.25;;;12.20;99.90;;;;;;7346473;32;20125;-62
2022/09/29 16:20:36;;;;;;;3.42;1.65;;;12.10;99.90;;;;;;7340319;32;20131;-62
2022/09/29 16:24:56;;;;;;;2.42;1.52;;;12.00;99.90;;;;;;7341064;32;20721;-62
2022/09/29 16:29:06;;;;;;;5.05;1.70;;;11.90;99.90;;;;;;7339834;32;20185;-64
2022/09/29 16:33:14;;;;;;;1.25;1.00;;;11.80;99.90;;;;;;7344849;32;20913;-64
2022/09/29 16:37:17;;;;;;;4.22;2.60;;;11.70;99.90;;;;;;7343536;32;20125;-65
2022/09/29 16:41:37;;;;;;;4.18;1.80;;;11.50;99.90;;;;;;7346825;32;20482;-64
2022/09/29 16:45:39;;;;;;;6.57;1.65;;;11.30;99.90;;;;;;7343016;32;20103;-63
2022/09/29 16:49:50;;;;;;;4.80;3.42;;;11.10;99.90;;;;;;7345216;32;20178;-65
2022/09/29 16:53:57;;;;;;;7.35;4.18;;;10.90;99.90;;;;;;7341547;32;20154;-65
2022/09/29 16:58:10;;;;;;;21.05;14.10;;;10.70;99.90;;;;;;7339322;32;20111;-64
2022/09/29 17:02:12;;;;;;;13.50;10.23;;;10.50;99.90;;;;;;7344915;32;20100;-64
2022/09/29 17:06:14;;;;;;;16.65;14.82;;;10.30;99.90;;;;;;7339021;32;20727;-63
2022/09/29 17:10:20;;;;;;;28.83;23.20;;;10.20;99.90;;;;;;7342396;32;20114;-64
2022/09/29 17:14:23;;;;;;;13.13;8.15;;;9.90;99.90;;;;;;7345617;32;20175;-65
2022/09/29 17:18:27;;;;;;;7.35;4.65;;;9.80;99.90;;;;;;7347697;32;20104;-64
2022/09/29 17:22:33;;;;;;;6.20;3.90;;;9.60;99.90;;;;;;7340472;32;20116;-65
2022/09/29 17:31:02;;;;;;;7.20;2.63;;;9.30;99.90;;;;;;7341157;32;20206;-62
2022/09/29 17:35:06;;;;;;;4.15;2.05;;;9.20;99.90;;;;;;7346033;32;20107;-64
2022/09/29 17:39:08;;;;;;;6.28;3.87;;;9.00;99.90;;;;;;7340356;32;20194;-64
2022/09/29 17:43:10;;;;;;;10.70;8.73;;;8.90;99.90;;;;;;7341054;32;20100;-62
2022/09/29 17:47:15;;;;;;;8.98;5.93;;;8.80;99.90;;;;;;7342348;32;20198;-63
2022/09/29 17:51:29;;;;;;;20.42;12.75;;;8.70;99.90;;;;;;7348346;32;20233;-63
2022/09/29 17:55:33;;;;;;;16.80;10.85;;;8.50;99.90;;;;;;7342476;32;20241;-62
2022/09/29 17:59:39;;;;;;;8.35;2.78;;;8.40;99.90;;;;;;7339898;32;20504;-64
2022/09/29 18:03:41;;;;;;;8.50;6.07;;;8.30;99.90;;;;;;7345989;32;20255;-61
2022/09/29 18:07:43;;;;;;;10.98;2.85;;;8.10;99.90;;;;;;7347248;32;20245;-63
2022/09/29 18:11:46;;;;;;;6.95;5.22;;;8.00;99.90;;;;;;7344188;32;20123;-64
2022/09/29 18:15:48;;;;;;;6.45;4.00;;;7.90;99.90;;;;;;7342371;32;20178;-64
2022/09/29 18:19:50;;;;;;;5.10;2.40;;;7.90;99.90;;;;;;7341150;32;21674;-60
2022/09/29 18:23:52;;;;;;;9.32;4.53;;;7.70;99.90;;;;;;7336726;32;20108;-63
2022/09/29 18:27:54;;;;;;;6.22;2.78;;;7.70;99.90;;;;;;7337772;32;20726;-65
2022/09/29 18:31:55;;;;;;;5.95;2.67;;;7.60;99.90;;;;;;7339299;32;20441;-64
2022/09/29 18:35:59;;;;;;;4.65;2.53;;;7.60;99.90;;;;;;7342595;32;20115;-64
2022/09/29 18:40:00;;;;;;;12.80;4.28;;;7.50;99.90;;;;;;7341201;32;20126;-63
2022/09/29 18:44:19;;;;;;;6.50;4.03;;;7.40;99.90;;;;;;7343957;32;20103;-63
2022/09/29 18:48:21;;;;;;;11.07;4.03;;;7.30;99.90;;;;;;7343123;32;20869;-63
2022/09/29 18:52:22;;;;;;;6.20;3.85;;;7.20;99.90;;;;;;7345218;32;20103;-64
2022/09/29 18:56:24;;;;;;;5.80;2.75;;;7.20;99.90;;;;;;7345586;32;20133;-64
2022/09/29 19:00:38;;;;;;;5.05;2.67;;;7.10;99.90;;;;;;7339848;32;20201;-64
2022/09/29 19:04:40;;;;;;;8.20;2.42;;;7.00;99.90;;;;;;7338491;32;20118;-64
2022/09/29 19:08:43;;;;;;;6.18;2.58;;;6.90;99.90;;;;;;7340223;32;20103;-64
2022/09/29 19:12:47;;;;;;;6.50;3.10;;;6.90;99.90;;;;;;7348807;32;20103;-65
2022/09/29 19:16:48;;;;;;;12.20;5.82;;;6.80;99.90;;;;;;7337938;32;20225;-65
2022/09/29 19:20:53;;;;;;;10.32;5.45;;;6.80;99.90;;;;;;7345234;32;20112;-63
2022/09/29 19:24:55;;;;;;;11.77;8.93;;;6.80;99.90;;;;;;7348482;32;20107;-63
2022/09/29 19:28:57;;;;;;;31.70;22.62;;;6.70;99.90;;;;;;7338803;32;20216;-63
2022/09/29 19:32:59;;;;;;;21.42;13.88;;;6.70;99.90;;;;;;7343289;32;20212;-62
2022/09/29 19:37:00;;;;;;;12.65;5.37;;;6.50;99.90;;;;;;7346851;32;20213;-62
2022/09/29 19:41:03;;;;;;;13.77;8.30;;;6.40;99.90;;;;;;7341599;32;20160;-64
2022/09/29 19:45:06;;;;;;;22.80;14.82;;;6.40;99.90;;;;;;7341282;32;20103;-65
2022/09/29 19:49:08;;;;;;;23.00;13.68;;;6.40;99.90;;;;;;7338941;32;20196;-62
2022/09/29 19:53:10;;;;;;;15.00;9.82;;;6.30;99.90;;;;;;7342948;32;20460;-62
2022/09/29 19:57:13;;;;;;;24.30;13.35;;;6.20;99.90;;;;;;7340876;32;20186;-63
2022/09/29 20:01:15;;;;;;;14.85;8.45;;;6.20;99.90;;;;;;7340713;32;20111;-62
2022/09/29 20:05:17;;;;;;;18.60;10.18;;;6.10;99.90;;;;;;7346565;32;20180;-62
2022/09/29 20:09:19;;;;;;;12.80;8.60;;;6.10;99.90;;;;;;7345850;32;20194;-63
2022/09/29 20:13:21;;;;;;;10.82;6.82;;;6.00;99.90;;;;;;7344547;32;20178;-62
2022/09/29 20:17:24;;;;;;;9.25;6.25;;;6.00;99.90;;;;;;7348763;32;20323;-64
2022/09/29 20:21:26;;;;;;;10.52;6.85;;;6.00;99.90;;;;;;7345028;32;20249;-64
2022/09/29 20:25:27;;;;;;;9.50;5.97;;;6.00;99.90;;;;;;7351245;32;20107;-63
2022/09/29 20:29:30;;;;;;;9.10;5.97;;;6.00;99.90;;;;;;7348425;32;20261;-63
2022/09/29 20:33:33;;;;;;;12.10;6.25;;;5.90;99.90;;;;;;7349682;32;20095;-64
2022/09/29 20:37:34;;;;;;;10.60;6.18;;;5.90;99.90;;;;;;7343028;32;20204;-66
2022/09/29 20:41:36;;;;;;;11.65;8.05;;;5.90;99.90;;;;;;7344416;32;20472;-65
2022/09/29 20:45:38;;;;;;;14.00;9.27;;;5.80;99.90;;;;;;7343550;32;20570;-62
2022/09/29 20:49:40;;;;;;;15.50;8.52;;;5.80;99.90;;;;;;7348009;32;20816;-62
2022/09/29 20:53:48;;;;;;;15.20;8.52;;;5.70;99.90;;;;;;7345616;32;20096;-62
2022/09/29 20:57:56;;;;;;;11.95;7.72;;;5.70;99.90;;;;;;7345957;32;20161;-63
2022/09/29 21:01:59;;;;;;;11.43;8.05;;;5.70;99.90;;;;;;7343489;32;20106;-62
2022/09/29 21:06:01;;;;;;;12.20;8.93;;;5.60;99.90;;;;;;7346261;32;20127;-62
2022/09/29 21:10:04;;;;;;;15.80;8.60;;;5.60;99.90;;;;;;7344648;32;20096;-63
2022/09/29 21:14:12;;;;;;;14.48;7.35;;;5.50;99.90;;;;;;7344332;32;20104;-63
2022/09/29 21:18:14;;;;;;;11.68;5.20;;;5.60;99.90;;;;;;7343746;32;20604;-63
2022/09/29 21:22:16;;;;;;;7.55;4.35;;;5.40;99.90;;;;;;7344380;32;20100;-63
2022/09/29 21:26:21;;;;;;;9.27;4.40;;;5.50;99.90;;;;;;7346390;32;20672;-62
2022/09/29 21:30:31;;;;;;;8.38;5.28;;;5.40;99.90;;;;;;7341547;32;20112;-63
2022/09/29 21:34:33;;;;;;;10.57;5.87;;;5.40;99.90;;;;;;7341823;32;20220;-63
2022/09/29 21:38:37;;;;;;;11.20;6.05;;;5.30;99.90;;;;;;7337635;32;20198;-63
2022/09/29 21:42:39;;;;;;;8.75;5.95;;;5.30;99.90;;;;;;7338448;32;20554;-62